Time;durP1;ratioP1;P1;durP2;ratioP2;P2;SDS_P1;SDS_P2;PMS_P1;PMS_P2;Temp;Humidity;BMP_temperature;BMP_pressure;BME280_temperature;BME280_humidity;BME280_pressure;Samples;Min_cycle;Max_cycle;Signal;HPM_P1;HPM_P2
2022/06/12 00:02:13;;;;;;;2.20;2.10;;;16.60;99.90;;;;;;5015525;28;20556;-46
2022/06/12 00:04:40;;;;;;;2.37;2.27;;;16.70;99.90;;;;;;5031067;28;20904;-47
2022/06/12 00:07:07;;;;;;;2.13;2.03;;;16.70;99.90;;;;;;5023202;28;20724;-47
2022/06/12 00:09:35;;;;;;;2.57;2.03;;;16.80;99.90;;;;;;5016090;28;20616;-47
2022/06/12 00:12:02;;;;;;;3.47;3.23;;;16.80;99.90;;;;;;5031316;28;20352;-47
2022/06/12 00:14:29;;;;;;;1.77;1.70;;;16.80;99.90;;;;;;5025960;28;20202;-47
2022/06/12 00:16:56;;;;;;;2.50;2.40;;;16.70;99.90;;;;;;5033697;28;20226;-47
2022/06/12 00:19:23;;;;;;;2.90;2.70;;;16.80;99.90;;;;;;5029703;28;20272;-47
2022/06/12 00:21:51;;;;;;;2.67;2.47;;;16.80;99.90;;;;;;5033738;28;20648;-46
2022/06/12 00:24:20;;;;;;;2.47;2.37;;;16.80;99.90;;;;;;5030016;28;20296;-47
2022/06/12 00:26:51;;;;;;;2.43;2.33;;;16.70;99.90;;;;;;5023988;28;20218;-47
2022/06/12 00:29:20;;;;;;;2.13;1.90;;;16.80;99.90;;;;;;5022974;28;20230;-47
2022/06/12 00:31:50;;;;;;;1.70;1.70;;;16.70;99.90;;;;;;5024098;28;20203;-47
2022/06/12 00:34:19;;;;;;;4.47;1.97;;;16.70;99.90;;;;;;5033527;28;20199;-47
2022/06/12 00:36:46;;;;;;;2.20;2.07;;;16.70;99.90;;;;;;5026319;28;20276;-47
2022/06/12 00:39:16;;;;;;;3.43;2.23;;;16.70;99.90;;;;;;5033493;28;20206;-47
2022/06/12 00:41:45;;;;;;;2.17;2.10;;;16.80;99.90;;;;;;5028991;28;20253;-47
2022/06/12 00:44:18;;;;;;;2.27;2.17;;;16.80;99.90;;;;;;5021804;28;20242;-47
2022/06/12 00:46:49;;;;;;;1.80;1.80;;;16.80;99.90;;;;;;5021808;28;20246;-47
2022/06/12 00:49:22;;;;;;;4.17;1.70;;;16.90;99.90;;;;;;5014728;28;20245;-47
2022/06/12 00:51:51;;;;;;;3.33;2.20;;;16.90;99.90;;;;;;5015897;28;20200;-47
2022/06/12 00:54:19;;;;;;;2.23;2.13;;;16.80;99.90;;;;;;5021159;28;20199;-48
2022/06/12 00:56:50;;;;;;;1.80;1.70;;;16.80;99.90;;;;;;5014134;28;20775;-47
2022/06/12 00:59:23;;;;;;;1.67;1.60;;;16.70;99.90;;;;;;5021780;28;20203;-47
2022/06/12 01:01:53;;;;;;;2.33;2.23;;;16.70;99.90;;;;;;5022461;28;20214;-47
2022/06/12 01:07:08;;;;;;;1.90;1.90;;;16.60;99.90;;;;;;5022683;28;20743;-47
2022/06/12 01:09:40;;;;;;;2.23;2.13;;;16.60;99.90;;;;;;5015964;28;20214;-47
2022/06/12 01:12:11;;;;;;;2.73;1.97;;;16.50;99.90;;;;;;5028731;28;20668;-47
2022/06/12 01:14:43;;;;;;;2.30;2.20;;;16.40;99.90;;;;;;5033815;28;20222;-47
2022/06/12 01:17:11;;;;;;;1.83;1.80;;;16.30;99.90;;;;;;5030780;28;20743;-47
2022/06/12 01:19:42;;;;;;;3.50;3.20;;;16.30;99.90;;;;;;5025399;28;20317;-47
2022/06/12 01:22:50;;;;;;;3.40;3.17;;;16.20;99.90;;;;;;5031851;28;20195;-47
2022/06/12 01:25:45;;;;;;;3.47;3.37;;;16.10;99.90;;;;;;5026458;28;20225;-46
2022/06/12 01:28:44;;;;;;;2.83;2.73;;;16.10;99.90;;;;;;5033436;28;20295;-47
2022/06/12 01:31:25;;;;;;;3.27;3.17;;;16.00;99.90;;;;;;5031187;28;20199;-47
2022/06/12 01:33:59;;;;;;;2.97;2.87;;;15.90;99.90;;;;;;5024498;28;20195;-47
2022/06/12 01:36:34;;;;;;;3.27;3.17;;;15.80;99.90;;;;;;5025733;28;20218;-47
2022/06/12 01:39:14;;;;;;;3.17;2.93;;;15.80;99.90;;;;;;5021749;28;20247;-47
2022/06/12 01:41:50;;;;;;;3.17;2.93;;;15.70;99.90;;;;;;5025518;28;20603;-47
2022/06/12 01:44:24;;;;;;;3.30;3.00;;;15.80;99.90;;;;;;5022680;28;20301;-47
2022/06/12 01:46:57;;;;;;;3.07;2.87;;;15.70;99.90;;;;;;5027859;28;20288;-47
2022/06/12 01:49:32;;;;;;;2.47;2.37;;;15.70;99.90;;;;;;5033401;28;20260;-47
2022/06/12 01:52:05;;;;;;;2.83;2.73;;;15.80;99.90;;;;;;5029053;28;20241;-47
2022/06/12 01:54:37;;;;;;;2.87;2.77;;;15.70;99.90;;;;;;5014009;28;20195;-47
2022/06/12 01:57:08;;;;;;;2.43;2.27;;;15.70;99.90;;;;;;5029655;28;20265;-47
2022/06/12 01:59:43;;;;;;;5.80;2.60;;;15.70;99.90;;;;;;5013159;28;20239;-47
2022/06/12 02:02:20;;;;;;;3.00;2.83;;;15.70;99.90;;;;;;5018011;28;20573;-47
2022/06/12 02:04:54;;;;;;;3.30;3.10;;;15.70;99.90;;;;;;5017935;28;20219;-47
2022/06/12 02:07:26;;;;;;;3.50;3.17;;;15.60;99.90;;;;;;5029672;28;20261;-47
2022/06/12 02:09:59;;;;;;;3.87;3.57;;;15.60;99.90;;;;;;5024370;28;20609;-47
2022/06/12 02:15:22;;;;;;;3.07;2.97;;;15.50;99.90;;;;;;5022745;28;20292;-46
2022/06/12 02:17:54;;;;;;;3.20;2.93;;;15.50;99.90;;;;;;5012700;28;20266;-47
2022/06/12 02:20:26;;;;;;;2.53;2.43;;;15.40;99.90;;;;;;5026849;28;20268;-47
2022/06/12 02:22:55;;;;;;;3.00;2.90;;;15.30;99.90;;;;;;5029894;28;20199;-47
2022/06/12 02:25:28;;;;;;;3.40;3.20;;;15.30;99.90;;;;;;5026053;28;20289;-47
2022/06/12 02:27:58;;;;;;;2.93;2.83;;;15.30;99.90;;;;;;5032406;28;20234;-46
2022/06/12 02:30:31;;;;;;;2.97;2.87;;;15.30;99.90;;;;;;5032447;28;20264;-47
2022/06/12 02:33:02;;;;;;;3.03;2.93;;;15.30;99.90;;;;;;5030190;28;20680;-47
2022/06/12 02:35:33;;;;;;;2.67;2.47;;;15.20;99.90;;;;;;5016476;28;20617;-47
2022/06/12 02:38:04;;;;;;;2.73;2.53;;;15.20;99.90;;;;;;5030413;28;20635;-46
2022/06/12 02:40:36;;;;;;;3.87;2.83;;;15.20;99.90;;;;;;5020466;28;20191;-47
2022/06/12 02:43:08;;;;;;;4.30;2.20;;;15.20;99.90;;;;;;5030139;28;20202;-47
2022/06/12 02:45:41;;;;;;;2.80;2.60;;;15.10;99.90;;;;;;5025908;28;20560;-47
2022/06/12 02:48:09;;;;;;;2.13;2.10;;;15.10;99.90;;;;;;5020487;28;20227;-47
2022/06/12 02:50:40;;;;;;;2.40;2.10;;;15.00;99.90;;;;;;5012302;28;20238;-47
2022/06/12 02:53:18;;;;;;;2.37;2.10;;;15.00;99.90;;;;;;5024527;28;20199;-47
2022/06/12 02:55:52;;;;;;;3.93;3.63;;;15.00;99.90;;;;;;5022889;28;20253;-47
2022/06/12 02:58:25;;;;;;;5.73;5.17;;;15.00;99.90;;;;;;5025268;28;20284;-47
2022/06/12 03:00:59;;;;;;;3.13;2.80;;;15.00;99.90;;;;;;5031909;28;20209;-49
2022/06/12 03:03:30;;;;;;;4.50;2.80;;;15.00;99.90;;;;;;5023882;28;20265;-47
2022/06/12 03:05:59;;;;;;;2.00;1.90;;;15.00;99.90;;;;;;5016378;28;20285;-47
2022/06/12 03:08:31;;;;;;;2.40;2.20;;;15.00;99.90;;;;;;5025053;28;20726;-47
2022/06/12 03:11:01;;;;;;;2.57;2.37;;;14.90;99.90;;;;;;5023674;28;20206;-46
2022/06/12 03:13:31;;;;;;;2.77;2.67;;;14.90;99.90;;;;;;5029964;28;20665;-47
2022/06/12 03:16:02;;;;;;;2.50;2.30;;;14.90;99.90;;;;;;5020993;28;20203;-47
2022/06/12 03:18:33;;;;;;;2.83;2.73;;;14.90;99.90;;;;;;5028454;28;20736;-47
2022/06/12 03:21:07;;;;;;;3.60;3.30;;;14.90;99.90;;;;;;5015106;28;20234;-47
2022/06/12 03:23:55;;;;;;;2.93;2.83;;;14.90;99.90;;;;;;5031013;28;20202;-47
2022/06/12 03:26:27;;;;;;;3.23;2.70;;;14.90;99.90;;;;;;5025175;28;20272;-47
2022/06/12 03:29:04;;;;;;;3.63;3.37;;;14.80;99.90;;;;;;5031634;28;20257;-46
2022/06/12 03:31:38;;;;;;;3.80;3.60;;;14.80;99.90;;;;;;5023677;28;20233;-47
2022/06/12 03:34:13;;;;;;;3.20;3.00;;;14.90;99.90;;;;;;5029193;28;20636;-46
2022/06/12 03:36:47;;;;;;;3.23;3.03;;;14.80;99.90;;;;;;5031420;28;20224;-47
2022/06/12 03:39:20;;;;;;;2.73;2.53;;;14.80;99.90;;;;;;5031454;28;20760;-47
2022/06/12 03:41:51;;;;;;;3.33;2.70;;;14.80;99.90;;;;;;5030166;28;20202;-46
2022/06/12 03:44:23;;;;;;;3.37;3.07;;;14.70;99.90;;;;;;5021323;28;20322;-47
2022/06/12 03:46:55;;;;;;;3.03;2.87;;;14.70;99.90;;;;;;5024896;28;20774;-46
2022/06/12 03:49:28;;;;;;;3.07;2.77;;;14.60;99.90;;;;;;5035386;28;20209;-47
2022/06/12 03:52:03;;;;;;;2.47;2.27;;;14.60;99.90;;;;;;5033491;28;20272;-47
2022/06/12 03:54:35;;;;;;;3.27;3.07;;;14.60;99.90;;;;;;5029056;28;20198;-47
2022/06/12 03:59:56;;;;;;;3.23;3.03;;;14.80;99.90;;;;;;5035364;28;20200;-47
2022/06/12 04:02:28;;;;;;;3.00;2.63;;;14.80;99.90;;;;;;5032263;28;20203;-47
2022/06/12 04:04:56;;;;;;;2.30;2.23;;;14.90;99.90;;;;;;5025750;28;20249;-47
2022/06/12 04:07:25;;;;;;;2.17;2.07;;;15.00;99.90;;;;;;5055736;22;21030;-51
2022/06/12 04:09:56;;;;;;;1.90;1.80;;;15.00;99.90;;;;;;5064163;28;20237;-52
2022/06/12 04:12:26;;;;;;;2.10;1.97;;;15.10;99.90;;;;;;5074295;28;20255;-51
2022/06/12 04:14:59;;;;;;;2.30;2.20;;;15.20;99.90;;;;;;5070417;28;20197;-52
2022/06/12 04:17:28;;;;;;;1.80;1.70;;;15.20;99.90;;;;;;5060222;28;21783;-51
2022/06/12 04:20:03;;;;;;;1.67;1.60;;;15.30;99.90;;;;;;5044543;28;20283;-51
2022/06/12 04:22:38;;;;;;;1.57;1.47;;;15.40;99.90;;;;;;5052965;28;20229;-51
2022/06/12 04:25:18;;;;;;;2.30;1.20;;;15.60;99.90;;;;;;5048854;28;20214;-52
2022/06/12 04:27:47;;;;;;;1.53;1.43;;;15.70;99.90;;;;;;5036808;28;20217;-52
2022/06/12 04:30:21;;;;;;;3.73;2.00;;;15.80;99.90;;;;;;5049121;28;20193;-52
2022/06/12 04:32:50;;;;;;;2.30;2.10;;;15.90;99.90;;;;;;5036656;28;20194;-52
2022/06/12 04:35:17;;;;;;;2.60;2.40;;;15.90;99.90;;;;;;5034729;28;20187;-51
2022/06/12 04:37:44;;;;;;;1.77;1.67;;;16.00;99.90;;;;;;5038496;28;20581;-52
2022/06/12 04:40:27;;;;;;;3.07;2.50;;;16.10;99.90;;;;;;5040823;28;20569;-52
2022/06/12 04:42:54;;;;;;;2.53;2.43;;;16.20;99.90;;;;;;5034368;28;20252;-51
2022/06/12 04:45:22;;;;;;;2.83;2.00;;;16.30;99.90;;;;;;5034408;28;20214;-51
2022/06/12 04:47:50;;;;;;;2.27;2.10;;;16.40;99.90;;;;;;5050214;28;20309;-52
2022/06/12 04:50:18;;;;;;;3.50;2.07;;;16.50;99.90;;;;;;5050040;28;20656;-51
2022/06/12 04:52:45;;;;;;;2.60;2.37;;;16.50;99.90;;;;;;5053073;28;20194;-51
2022/06/12 04:55:12;;;;;;;2.63;2.40;;;16.60;99.90;;;;;;5045035;28;20204;-51
2022/06/12 04:57:40;;;;;;;2.07;1.97;;;16.70;99.90;;;;;;5043010;28;20361;-51
2022/06/12 05:00:09;;;;;;;2.57;2.47;;;16.90;99.90;;;;;;5052587;28;20274;-51
2022/06/12 05:02:36;;;;;;;2.60;2.50;;;17.30;99.90;;;;;;5047238;28;20199;-52
2022/06/12 05:05:05;;;;;;;2.20;2.00;;;17.60;99.90;;;;;;5042606;28;20309;-49
2022/06/12 05:07:32;;;;;;;2.60;2.40;;;18.10;99.90;;;;;;5046115;28;20238;-52
2022/06/12 05:09:59;;;;;;;1.70;1.70;;;18.70;99.90;;;;;;5049870;28;20201;-52
2022/06/12 05:12:26;;;;;;;2.40;1.97;;;19.60;99.90;;;;;;5044587;28;20196;-51
2022/06/12 05:14:53;;;;;;;1.80;1.80;;;20.40;99.90;;;;;;5044854;28;20202;-52
2022/06/12 05:17:22;;;;;;;3.60;1.80;;;21.40;99.90;;;;;;5047369;28;20217;-51
2022/06/12 05:19:50;;;;;;;1.80;1.70;;;22.20;99.90;;;;;;5040405;28;20205;-52
2022/06/12 05:22:22;;;;;;;1.70;1.60;;;22.70;99.90;;;;;;5038446;28;20203;-53
2022/06/12 05:24:49;;;;;;;2.00;1.60;;;23.40;99.90;;;;;;5044973;28;20223;-51
2022/06/12 05:27:21;;;;;;;1.53;1.43;;;24.30;99.90;;;;;;5048621;28;20211;-50
2022/06/12 05:29:49;;;;;;;1.20;1.20;;;24.90;99.90;;;;;;5047306;28;20210;-52
2022/06/12 05:32:21;;;;;;;0.93;0.93;;;25.30;99.90;;;;;;5044347;28;20195;-52
2022/06/12 05:34:49;;;;;;;1.27;1.10;;;25.70;99.90;;;;;;5050034;28;20224;-52
2022/06/12 05:37:19;;;;;;;2.67;1.10;;;26.10;99.90;;;;;;5045398;28;20248;-51
2022/06/12 05:39:47;;;;;;;1.43;1.43;;;26.20;99.90;;;;;;5049598;28;20582;-52
2022/06/12 05:42:20;;;;;;;1.90;1.17;;;26.50;99.90;;;;;;5041560;28;20202;-52
2022/06/12 05:44:48;;;;;;;1.80;1.20;;;26.70;99.90;;;;;;5045200;28;20213;-53
2022/06/12 05:47:18;;;;;;;2.67;0.87;;;26.90;99.90;;;;;;5041631;28;20210;-52
2022/06/12 05:49:45;;;;;;;1.13;1.13;;;27.20;99.90;;;;;;5046089;28;20284;-53
2022/06/12 05:52:12;;;;;;;1.60;1.13;;;27.80;99.90;;;;;;5051202;28;20243;-50
2022/06/12 05:54:42;;;;;;;1.10;0.90;;;28.40;99.10;;;;;;5047804;28;20204;-52
2022/06/12 05:57:09;;;;;;;0.98;0.98;;;28.30;99.00;;;;;;5046929;28;20201;-52
2022/06/12 05:59:36;;;;;;;1.38;1.00;;;28.50;97.70;;;;;;5039454;28;20750;-51
2022/06/12 06:02:03;;;;;;;0.98;0.98;;;28.20;98.20;;;;;;5054573;28;20730;-52
2022/06/12 06:04:31;;;;;;;0.95;0.95;;;28.40;97.10;;;;;;5046049;28;20638;-52
2022/06/12 06:06:58;;;;;;;1.33;0.88;;;28.50;98.70;;;;;;5046103;28;20280;-52
2022/06/12 06:09:26;;;;;;;1.15;1.08;;;29.00;97.40;;;;;;5047147;28;20736;-53
2022/06/12 06:11:55;;;;;;;1.58;1.30;;;29.00;97.00;;;;;;5047441;28;20251;-52
2022/06/12 06:14:22;;;;;;;1.33;1.10;;;28.70;97.00;;;;;;5054528;28;20293;-52
2022/06/12 06:16:49;;;;;;;1.08;1.08;;;28.90;95.60;;;;;;5049501;28;20194;-53
2022/06/12 06:19:17;;;;;;;0.80;0.73;;;29.30;95.90;;;;;;5055502;28;20776;-52
2022/06/12 06:21:45;;;;;;;0.70;0.70;;;29.50;95.10;;;;;;5055275;28;20205;-53
2022/06/12 06:24:13;;;;;;;1.33;1.33;;;29.50;95.10;;;;;;5058755;28;20206;-52
2022/06/12 06:26:41;;;;;;;1.80;1.13;;;29.40;95.10;;;;;;5053326;28;20228;-53
2022/06/12 06:29:10;;;;;;;1.30;0.98;;;29.60;94.80;;;;;;5053979;28;20304;-53
2022/06/12 06:31:37;;;;;;;0.95;0.93;;;30.40;93.80;;;;;;5053254;28;20251;-53
2022/06/12 06:34:04;;;;;;;0.80;0.80;;;30.70;93.40;;;;;;5052435;28;20205;-52
2022/06/12 06:36:31;;;;;;;0.98;0.98;;;30.70;92.20;;;;;;5058516;28;20229;-53
2022/06/12 06:39:00;;;;;;;0.90;0.90;;;30.90;93.30;;;;;;5054572;28;20233;-52
2022/06/12 06:41:28;;;;;;;0.90;0.90;;;30.30;91.30;;;;;;5049791;28;20280;-53
2022/06/12 06:46:41;;;;;;;2.58;0.80;;;29.10;93.10;;;;;;5054103;28;20216;-53
2022/06/12 06:49:09;;;;;;;0.95;0.80;;;29.20;90.20;;;;;;5061528;28;20213;-53
2022/06/12 06:51:36;;;;;;;2.20;0.73;;;29.10;90.70;;;;;;5034374;28;20286;-53
2022/06/12 06:54:05;;;;;;;0.77;0.77;;;29.00;90.50;;;;;;5047337;28;20333;-53
2022/06/12 06:56:33;;;;;;;0.70;0.70;;;29.20;91.20;;;;;;5041302;28;20668;-52
2022/06/12 06:59:00;;;;;;;1.05;0.73;;;29.70;89.10;;;;;;5040032;28;20218;-53
2022/06/12 07:01:27;;;;;;;0.90;0.70;;;30.10;90.20;;;;;;5040941;28;20286;-53
2022/06/12 07:03:55;;;;;;;1.67;0.80;;;30.10;88.70;;;;;;5042181;28;20730;-53
2022/06/12 07:06:25;;;;;;;1.58;1.05;;;30.60;90.10;;;;;;5047150;28;20254;-52
2022/06/12 07:08:52;;;;;;;1.40;0.88;;;31.10;88.80;;;;;;5047639;28;20232;-52
2022/06/12 07:11:20;;;;;;;0.95;0.95;;;30.70;89.00;;;;;;5038968;28;20206;-53
2022/06/12 07:13:47;;;;;;;0.80;0.80;;;30.60;87.10;;;;;;5047655;28;20613;-52
2022/06/12 07:16:18;;;;;;;0.70;0.70;;;30.30;90.10;;;;;;5049900;28;20668;-53
2022/06/12 07:18:45;;;;;;;0.70;0.70;;;30.60;87.10;;;;;;5042843;28;20218;-53
2022/06/12 07:21:16;;;;;;;0.80;0.80;;;30.70;87.50;;;;;;5031250;28;20673;-53
2022/06/12 07:23:44;;;;;;;0.65;0.65;;;30.90;85.10;;;;;;5040062;28;20199;-53
2022/06/12 07:26:21;;;;;;;0.80;0.80;;;31.00;87.40;;;;;;5050136;28;20309;-51
2022/06/12 07:28:49;;;;;;;1.23;0.75;;;31.00;87.30;;;;;;5042522;28;20231;-54
2022/06/12 07:31:17;;;;;;;1.08;0.70;;;31.40;87.10;;;;;;5050602;28;20212;-54
2022/06/12 07:33:44;;;;;;;1.05;0.73;;;31.70;86.90;;;;;;5041829;28;20669;-53
2022/06/12 07:36:16;;;;;;;1.00;0.88;;;31.40;85.70;;;;;;5046127;28;20243;-52
2022/06/12 07:38:45;;;;;;;1.88;1.25;;;31.60;87.30;;;;;;5038948;28;20218;-52
2022/06/12 07:41:14;;;;;;;1.20;1.20;;;31.40;84.40;;;;;;5041080;28;20288;-53
2022/06/12 07:43:43;;;;;;;0.60;0.60;;;31.40;85.20;;;;;;5036454;28;20244;-53
2022/06/12 07:46:13;;;;;;;0.88;0.80;;;31.40;83.80;;;;;;5042526;28;20238;-51
2022/06/12 07:48:41;;;;;;;0.90;0.90;;;31.40;87.60;;;;;;5048823;28;20224;-53
2022/06/12 07:51:11;;;;;;;0.50;0.50;;;31.60;89.00;;;;;;5061172;28;20208;-53
2022/06/12 07:53:40;;;;;;;0.88;0.77;;;31.50;83.90;;;;;;5061092;28;20193;-53
2022/06/12 07:56:09;;;;;;;1.10;0.80;;;31.20;86.00;;;;;;5058121;28;20238;-54
2022/06/12 07:58:40;;;;;;;0.70;0.68;;;31.40;84.40;;;;;;5047391;28;20298;-53
2022/06/12 08:01:11;;;;;;;0.95;0.77;;;31.40;81.60;;;;;;5045846;28;20737;-53
2022/06/12 08:03:38;;;;;;;0.88;0.88;;;31.10;82.90;;;;;;5046637;28;20202;-54
2022/06/12 08:06:05;;;;;;;1.50;0.90;;;31.60;87.00;;;;;;5058255;28;20256;-53
2022/06/12 08:08:33;;;;;;;0.60;0.60;;;31.20;82.90;;;;;;5043902;28;20279;-53
2022/06/12 08:11:02;;;;;;;1.17;0.80;;;31.10;85.60;;;;;;5039008;28;20281;-53
2022/06/12 08:13:30;;;;;;;0.73;0.73;;;31.10;88.70;;;;;;5042151;28;20198;-53
2022/06/12 08:15:57;;;;;;;1.33;1.33;;;31.20;82.00;;;;;;5042634;28;20282;-53
2022/06/12 08:18:25;;;;;;;0.85;0.82;;;31.50;83.40;;;;;;5041664;28;20707;-54
2022/06/12 08:20:55;;;;;;;0.80;0.80;;;31.40;86.30;;;;;;5037379;28;20684;-54
2022/06/12 08:23:30;;;;;;;0.70;0.70;;;31.80;82.20;;;;;;5038299;28;20733;-54
2022/06/12 08:26:03;;;;;;;0.82;0.82;;;32.10;83.50;;;;;;5042383;28;20220;-54
2022/06/12 08:28:34;;;;;;;0.88;0.88;;;32.40;86.90;;;;;;5043796;28;20218;-53
2022/06/12 08:31:02;;;;;;;0.95;0.65;;;32.10;87.00;;;;;;5039826;28;20297;-54
2022/06/12 08:33:29;;;;;;;0.60;0.60;;;32.10;87.70;;;;;;5047026;28;20275;-54
2022/06/12 08:35:57;;;;;;;2.50;0.90;;;32.70;87.30;;;;;;5044133;28;20256;-54
2022/06/12 08:38:24;;;;;;;1.00;1.00;;;32.90;85.10;;;;;;5041981;28;20271;-54
2022/06/12 08:40:58;;;;;;;1.50;1.08;;;33.10;82.80;;;;;;5046784;28;20209;-54
2022/06/12 08:43:34;;;;;;;1.00;1.00;;;33.30;85.00;;;;;;5047407;28;20211;-54
2022/06/12 08:46:08;;;;;;;0.70;0.70;;;33.70;84.80;;;;;;5043217;28;20213;-54
2022/06/12 08:48:44;;;;;;;0.80;0.80;;;34.00;83.80;;;;;;5046659;28;20703;-54
2022/06/12 08:51:19;;;;;;;0.63;0.63;;;34.00;83.30;;;;;;5048217;28;20213;-54
2022/06/12 08:53:49;;;;;;;1.15;0.70;;;34.20;84.40;;;;;;5052518;28;20292;-53
2022/06/12 08:56:21;;;;;;;0.77;0.77;;;33.70;86.90;;;;;;5061935;28;20243;-51
2022/06/12 08:58:57;;;;;;;0.60;0.60;;;33.90;85.10;;;;;;5050519;28;20217;-52
2022/06/12 09:01:24;;;;;;;0.90;0.90;;;34.30;85.40;;;;;;5045224;28;20205;-54
2022/06/12 09:03:54;;;;;;;0.93;0.80;;;34.20;80.70;;;;;;5050963;28;20220;-54
2022/06/12 09:06:33;;;;;;;2.38;1.05;;;34.30;75.80;;;;;;5050365;28;20308;-52
2022/06/12 09:09:05;;;;;;;0.80;0.80;;;34.00;75.20;;;;;;5049253;28;20302;-51
2022/06/12 09:11:38;;;;;;;1.67;0.93;;;34.10;74.10;;;;;;5050859;28;20286;-54
2022/06/12 09:14:15;;;;;;;5.47;1.02;;;34.40;75.70;;;;;;5046389;28;20387;-54
2022/06/12 09:16:49;;;;;;;1.30;0.50;;;33.80;75.40;;;;;;5048906;28;20197;-52
2022/06/12 09:19:26;;;;;;;0.80;0.80;;;34.10;80.70;;;;;;5042851;28;20703;-53
2022/06/12 09:22:04;;;;;;;0.80;0.80;;;34.10;80.50;;;;;;5048362;28;20279;-52
2022/06/12 09:24:42;;;;;;;1.35;0.90;;;33.90;74.50;;;;;;5048406;28;20572;-53
2022/06/12 09:27:19;;;;;;;1.42;0.93;;;34.20;76.90;;;;;;5052321;28;20263;-53
2022/06/12 09:29:56;;;;;;;1.00;0.70;;;34.30;74.30;;;;;;5051385;28;20247;-54
2022/06/12 09:32:35;;;;;;;0.85;0.85;;;33.90;76.30;;;;;;5050309;28;20193;-53
2022/06/12 09:35:12;;;;;;;0.90;0.90;;;34.40;71.70;;;;;;5052934;28;20213;-52
2022/06/12 09:40:40;;;;;;;0.88;0.88;;;34.40;80.20;;;;;;5059643;28;20204;-52
2022/06/12 09:43:18;;;;;;;0.82;0.73;;;34.40;79.50;;;;;;5049850;28;20576;-52
2022/06/12 09:45:59;;;;;;;0.50;0.50;;;34.50;71.00;;;;;;5047687;28;20251;-51
2022/06/12 09:48:37;;;;;;;0.73;0.73;;;34.30;69.00;;;;;;5049631;28;20279;-52
2022/06/12 09:51:13;;;;;;;0.90;0.90;;;34.70;70.10;;;;;;5049522;28;20213;-52
2022/06/12 09:53:58;;;;;;;2.13;1.58;;;34.70;77.60;;;;;;5050469;28;20256;-53
2022/06/12 09:56:34;;;;;;;1.40;1.30;;;34.30;76.00;;;;;;5053448;28;20235;-53
2022/06/12 09:59:06;;;;;;;2.13;1.98;;;34.70;78.60;;;;;;5059852;28;20225;-53
2022/06/12 10:01:38;;;;;;;2.17;2.10;;;35.10;81.50;;;;;;5051405;28;20289;-51
2022/06/12 10:04:12;;;;;;;2.42;2.33;;;35.00;83.90;;;;;;5050235;28;20201;-51
2022/06/12 10:06:45;;;;;;;2.25;2.03;;;34.30;85.80;;;;;;5048485;28;20765;-51
2022/06/12 10:09:18;;;;;;;1.85;1.77;;;34.00;86.10;;;;;;5095918;22;20235;-46
2022/06/12 10:11:49;;;;;;;2.35;2.25;;;34.10;85.40;;;;;;5082855;28;20205;-46
2022/06/12 10:14:21;;;;;;;2.72;2.60;;;34.30;85.40;;;;;;5088842;28;20208;-46
2022/06/12 10:16:54;;;;;;;2.53;2.33;;;33.90;88.00;;;;;;5078776;28;21048;-46
2022/06/12 10:19:25;;;;;;;2.72;2.53;;;32.90;90.00;;;;;;5083597;28;20297;-46
2022/06/12 10:21:55;;;;;;;3.85;3.33;;;32.70;90.50;;;;;;5084297;28;20197;-46
2022/06/12 10:24:23;;;;;;;2.67;2.58;;;33.10;91.60;;;;;;5080048;28;20193;-46
2022/06/12 10:27:00;;;;;;;2.75;2.65;;;33.50;89.80;;;;;;5086848;28;20220;-47
2022/06/12 10:29:29;;;;;;;2.75;2.55;;;34.10;87.80;;;;;;5081116;28;20263;-47
2022/06/12 10:32:01;;;;;;;2.33;2.22;;;34.30;85.30;;;;;;5081192;28;20226;-46
2022/06/12 10:34:30;;;;;;;2.55;2.38;;;34.50;88.60;;;;;;5077853;28;20217;-46
2022/06/12 10:37:11;;;;;;;2.13;2.10;;;34.50;90.00;;;;;;5085716;28;20539;-46
2022/06/12 10:39:40;;;;;;;2.33;2.20;;;34.30;84.40;;;;;;5083835;28;20239;-47
2022/06/12 10:42:25;;;;;;;1.52;1.52;;;34.10;85.30;;;;;;5077052;28;20193;-46
2022/06/12 10:44:57;;;;;;;1.90;1.80;;;33.50;88.60;;;;;;5086394;28;20192;-46
2022/06/12 10:47:27;;;;;;;2.17;1.85;;;33.10;82.50;;;;;;5081936;28;20225;-47
2022/06/12 10:50:19;;;;;;;1.88;1.85;;;33.00;82.20;;;;;;5090282;28;20638;-47
2022/06/12 10:52:58;;;;;;;1.63;1.60;;;32.80;85.10;;;;;;5083834;28;21101;-48
2022/06/12 10:55:48;;;;;;;2.00;1.77;;;32.70;87.70;;;;;;5076254;28;20197;-48
2022/06/12 10:58:51;;;;;;;1.67;1.67;;;32.50;89.20;;;;;;5075639;28;20627;-49
2022/06/12 11:01:26;;;;;;;1.70;1.70;;;32.00;88.00;;;;;;5088088;28;20876;-48
2022/06/12 11:04:03;;;;;;;1.67;1.55;;;31.50;87.70;;;;;;5084963;28;20602;-47
2022/06/12 11:06:36;;;;;;;1.88;1.45;;;30.10;88.30;;;;;;5083122;28;20208;-47
2022/06/12 11:09:13;;;;;;;1.83;1.73;;;29.70;89.50;;;;;;5083743;28;20224;-48
2022/06/12 11:11:53;;;;;;;1.65;1.55;;;30.00;92.40;;;;;;5075976;28;20200;-47
2022/06/12 11:14:34;;;;;;;1.35;1.33;;;30.30;90.80;;;;;;5082865;28;20207;-48
2022/06/12 11:17:17;;;;;;;1.88;1.77;;;30.50;90.60;;;;;;5085433;28;20620;-48
2022/06/12 11:20:01;;;;;;;1.33;1.23;;;30.20;87.10;;;;;;5076807;28;20698;-48
2022/06/12 11:22:41;;;;;;;1.50;1.40;;;29.90;89.70;;;;;;5076373;28;20245;-48
2022/06/12 11:25:31;;;;;;;2.67;1.40;;;29.80;89.10;;;;;;5080924;28;20200;-48
2022/06/12 11:28:10;;;;;;;1.23;1.23;;;29.70;88.30;;;;;;5084977;28;20718;-48
2022/06/12 11:30:47;;;;;;;1.13;1.13;;;29.70;84.70;;;;;;5085356;28;20275;-47
2022/06/12 11:33:33;;;;;;;2.55;1.63;;;29.90;84.00;;;;;;5081456;28;20197;-48
2022/06/12 11:36:10;;;;;;;1.33;1.27;;;29.70;84.50;;;;;;5083966;28;20210;-47
2022/06/12 11:39:08;;;;;;;2.00;1.90;;;29.40;91.20;;;;;;5083891;28;20208;-47
2022/06/12 11:41:51;;;;;;;1.70;1.55;;;29.30;90.70;;;;;;5076435;28;20280;-47
2022/06/12 11:44:35;;;;;;;1.90;1.80;;;28.90;90.10;;;;;;5077443;28;20662;-47
2022/06/12 11:47:10;;;;;;;1.70;1.60;;;29.00;87.40;;;;;;5083160;28;20221;-47
2022/06/12 11:49:49;;;;;;;1.40;1.30;;;29.10;89.20;;;;;;5078370;28;20306;-47
2022/06/12 11:52:41;;;;;;;3.55;2.17;;;29.20;89.20;;;;;;5081920;28;20201;-47
2022/06/12 11:55:18;;;;;;;1.67;1.17;;;29.20;86.50;;;;;;5083019;28;20212;-47
2022/06/12 11:57:58;;;;;;;1.48;1.38;;;29.10;86.30;;;;;;5084446;28;20196;-48
2022/06/12 12:00:33;;;;;;;1.10;1.10;;;29.10;87.40;;;;;;5075618;28;20621;-47
2022/06/12 12:03:16;;;;;;;1.23;1.23;;;28.90;86.50;;;;;;5075259;28;20208;-48
2022/06/12 12:05:51;;;;;;;1.55;0.93;;;28.90;85.50;;;;;;5081699;28;20269;-48
2022/06/12 12:08:46;;;;;;;1.10;1.00;;;29.00;85.80;;;;;;5073442;28;20606;-48
2022/06/12 12:11:19;;;;;;;1.00;1.00;;;28.90;85.00;;;;;;5080815;28;20193;-48
2022/06/12 12:13:51;;;;;;;1.00;1.00;;;28.90;83.60;;;;;;5074789;28;20243;-48
2022/06/12 12:16:29;;;;;;;1.50;0.82;;;28.90;84.80;;;;;;5080463;28;20196;-48
2022/06/12 12:19:01;;;;;;;1.17;1.17;;;29.00;84.70;;;;;;5093328;28;20396;-48
2022/06/12 12:21:34;;;;;;;1.23;1.23;;;28.90;84.50;;;;;;5089639;28;20216;-48
2022/06/12 12:24:05;;;;;;;1.25;1.25;;;28.80;83.70;;;;;;5087721;28;20273;-48
2022/06/12 12:26:37;;;;;;;1.38;0.90;;;28.80;85.10;;;;;;5091987;28;20220;-48
2022/06/12 12:29:06;;;;;;;1.20;1.20;;;28.80;85.90;;;;;;5093274;28;20221;-47
2022/06/12 12:31:34;;;;;;;0.93;0.93;;;28.70;85.10;;;;;;5084965;28;20205;-48
2022/06/12 12:34:04;;;;;;;1.10;1.10;;;28.60;83.50;;;;;;5092415;28;20204;-48
2022/06/12 12:42:26;;;;;;;1.60;1.17;;;28.60;85.20;;;;;;5087399;28;20204;-48
2022/06/12 12:44:55;;;;;;;0.88;0.88;;;28.50;83.40;;;;;;5085115;28;20243;-47
2022/06/12 12:47:24;;;;;;;1.00;0.65;;;28.60;85.70;;;;;;5092940;28;20270;-48
2022/06/12 12:50:03;;;;;;;1.23;1.23;;;28.40;83.60;;;;;;5086003;28;20783;-48
2022/06/12 12:52:41;;;;;;;1.52;0.85;;;28.40;87.70;;;;;;5090044;28;20684;-48
2022/06/12 12:55:21;;;;;;;1.85;0.80;;;28.50;83.80;;;;;;5077216;28;20287;-47
2022/06/12 12:57:48;;;;;;;0.70;0.70;;;28.40;80.60;;;;;;5081685;28;20201;-48
2022/06/12 13:00:25;;;;;;;1.30;1.00;;;28.40;86.70;;;;;;5086766;28;20253;-48
2022/06/12 13:02:56;;;;;;;0.90;0.90;;;28.40;82.80;;;;;;5082303;28;20193;-47
2022/06/12 13:05:26;;;;;;;0.75;0.75;;;28.30;79.90;;;;;;5088000;28;20302;-47
2022/06/12 13:08:07;;;;;;;1.05;0.93;;;28.40;80.70;;;;;;5083774;28;20252;-48
2022/06/12 13:11:00;;;;;;;1.90;1.13;;;28.50;79.30;;;;;;5092239;28;20204;-48
2022/06/12 13:13:51;;;;;;;1.05;0.95;;;28.50;79.10;;;;;;5078534;28;20200;-47
2022/06/12 13:16:27;;;;;;;0.50;0.50;;;28.50;87.10;;;;;;5080682;28;20201;-47
2022/06/12 13:19:20;;;;;;;0.80;0.70;;;28.50;76.80;;;;;;5082919;28;20244;-48
2022/06/12 13:21:57;;;;;;;0.57;0.57;;;28.50;80.20;;;;;;5073108;28;20197;-47
2022/06/12 13:24:30;;;;;;;0.77;0.77;;;28.60;80.00;;;;;;5081126;28;20197;-47
2022/06/12 13:26:59;;;;;;;0.68;0.68;;;28.60;76.40;;;;;;5091632;28;20234;-47
2022/06/12 13:29:27;;;;;;;0.88;0.73;;;28.60;76.50;;;;;;5092541;28;20269;-47
2022/06/12 13:31:56;;;;;;;0.80;0.80;;;28.50;76.10;;;;;;5081171;28;20193;-48
2022/06/12 13:34:23;;;;;;;0.63;0.60;;;28.70;81.60;;;;;;5087124;28;20201;-48
2022/06/12 13:36:51;;;;;;;0.73;0.73;;;28.50;77.30;;;;;;5083653;28;20705;-47